Time;durP1;ratioP1;P1;durP2;ratioP2;P2;SDS_P1;SDS_P2;PMS_P1;PMS_P2;Temp;Humidity;BMP_temperature;BMP_pressure;BME280_temperature;BME280_humidity;BME280_pressure;Samples;Min_cycle;Max_cycle;Signal;HPM_P1;HPM_P2
2020/12/18 00:01:24;;;;;;;9.83;8.87;;;10.40;62.40;;;;;;5006797;28;20455;-40
2020/12/18 00:03:51;;;;;;;12.67;8.37;;;10.30;63.00;;;;;;5007777;28;20468;-40
2020/12/18 00:06:17;;;;;;;11.00;8.83;;;10.20;63.30;;;;;;5009652;28;20449;-41
2020/12/18 00:08:43;;;;;;;12.40;9.37;;;10.30;63.30;;;;;;5007828;28;20556;-40
2020/12/18 00:11:08;;;;;;;9.40;8.40;;;10.40;63.10;;;;;;5009344;28;20193;-40
2020/12/18 00:13:34;;;;;;;11.00;8.83;;;10.50;62.90;;;;;;5007012;28;20577;-40
2020/12/18 00:15:59;;;;;;;9.93;8.93;;;10.70;62.30;;;;;;5005900;28;20556;-40
2020/12/18 00:18:25;;;;;;;9.27;7.70;;;10.80;61.70;;;;;;5008011;28;20561;-40
2020/12/18 00:20:51;;;;;;;8.60;7.67;;;10.90;61.70;;;;;;5008693;28;20193;-40
2020/12/18 00:23:17;;;;;;;9.60;8.00;;;10.80;61.90;;;;;;5001570;28;20208;-40
2020/12/18 00:25:47;;;;;;;9.63;8.17;;;10.90;61.90;;;;;;5006927;28;20437;-40
2020/12/18 00:28:13;;;;;;;11.93;8.70;;;10.80;61.20;;;;;;5007621;28;20461;-40
2020/12/18 00:30:40;;;;;;;11.70;8.70;;;10.80;61.40;;;;;;5007847;28;20433;-40
2020/12/18 00:33:05;;;;;;;10.27;8.07;;;10.90;61.20;;;;;;4995428;28;20946;-40
2020/12/18 00:35:31;;;;;;;8.80;7.90;;;10.80;61.70;;;;;;5007352;28;20542;-40
2020/12/18 00:37:56;;;;;;;12.40;8.53;;;10.70;61.90;;;;;;5013832;28;20245;-40
2020/12/18 00:40:22;;;;;;;10.57;8.63;;;10.70;61.50;;;;;;5007571;28;20197;-40
2020/12/18 00:42:48;;;;;;;10.43;9.30;;;10.70;61.40;;;;;;5008231;28;20205;-40
2020/12/18 00:45:13;;;;;;;11.10;9.00;;;10.60;61.60;;;;;;5006222;28;20220;-40
2020/12/18 00:47:39;;;;;;;9.70;8.60;;;10.70;61.20;;;;;;5003879;28;20557;-40
2020/12/18 00:50:05;;;;;;;13.10;9.10;;;10.60;60.80;;;;;;5000053;28;20317;-40
2020/12/18 00:52:31;;;;;;;11.37;8.60;;;10.60;61.40;;;;;;5000950;28;20449;-40
2020/12/18 00:54:57;;;;;;;11.87;9.30;;;10.70;60.90;;;;;;5001960;28;20456;-40
2020/12/18 00:57:24;;;;;;;10.97;9.10;;;10.70;60.40;;;;;;5004566;28;20561;-40
2020/12/18 00:59:49;;;;;;;9.83;8.80;;;10.70;60.20;;;;;;5012554;28;20271;-40
2020/12/18 01:02:15;;;;;;;12.20;9.70;;;10.50;60.00;;;;;;5009627;28;20837;-40
2020/12/18 01:04:41;;;;;;;11.27;8.63;;;10.50;60.50;;;;;;5012948;28;20556;-40
2020/12/18 01:07:06;;;;;;;14.83;9.90;;;10.50;60.70;;;;;;5004067;28;20206;-40
2020/12/18 01:09:32;;;;;;;11.43;9.33;;;10.60;60.70;;;;;;5012116;28;20201;-40
2020/12/18 01:11:57;;;;;;;8.80;7.90;;;10.60;60.20;;;;;;5011554;28;20190;-40
2020/12/18 01:14:23;;;;;;;10.20;9.00;;;10.70;60.00;;;;;;5008819;28;20730;-40
2020/12/18 01:16:52;;;;;;;15.20;9.03;;;10.70;59.80;;;;;;5010777;28;20281;-40
2020/12/18 01:19:18;;;;;;;18.90;9.80;;;10.70;59.60;;;;;;5011150;28;20658;-40
2020/12/18 01:21:44;;;;;;;8.17;7.37;;;10.50;59.60;;;;;;5011349;28;20920;-40
2020/12/18 01:24:10;;;;;;;9.37;8.37;;;10.40;59.90;;;;;;5011757;28;20444;-40
2020/12/18 01:26:36;;;;;;;8.80;8.00;;;10.40;60.10;;;;;;5009768;28;20854;-40
2020/12/18 01:29:02;;;;;;;9.50;7.60;;;10.40;59.90;;;;;;5013667;28;20432;-40
2020/12/18 01:31:27;;;;;;;9.50;8.60;;;10.50;59.70;;;;;;5009296;28;20217;-40
2020/12/18 01:33:53;;;;;;;9.20;8.27;;;10.30;59.60;;;;;;5010068;28;20222;-40
2020/12/18 01:36:19;;;;;;;13.03;8.23;;;10.30;59.90;;;;;;5011337;28;20197;-40
2020/12/18 01:38:45;;;;;;;16.03;8.47;;;10.00;59.60;;;;;;5010767;28;20242;-40
2020/12/18 01:41:11;;;;;;;9.93;7.90;;;9.80;61.70;;;;;;5011224;28;20516;-40
2020/12/18 01:43:37;;;;;;;8.30;7.50;;;9.90;62.40;;;;;;5009800;28;20580;-40
2020/12/18 01:46:09;;;;;;;9.70;8.70;;;9.90;62.20;;;;;;5007949;28;20544;-40
2020/12/18 01:48:35;;;;;;;13.43;7.30;;;10.00;60.70;;;;;;5011777;28;20241;-40
2020/12/18 01:51:01;;;;;;;9.77;7.37;;;10.00;60.50;;;;;;5009774;28;20850;-40
2020/12/18 01:53:29;;;;;;;18.37;7.83;;;9.90;61.70;;;;;;5009654;28;20484;-40
2020/12/18 01:55:56;;;;;;;15.27;8.20;;;9.80;62.30;;;;;;5011528;28;20452;-40
2020/12/18 01:58:22;;;;;;;8.40;7.60;;;9.80;62.10;;;;;;5011607;28;20429;-40
2020/12/18 02:00:48;;;;;;;9.50;7.73;;;9.80;62.30;;;;;;5005615;28;20570;-40
2020/12/18 02:03:14;;;;;;;40.47;9.87;;;9.80;62.00;;;;;;5006568;28;20449;-40
2020/12/18 02:05:40;;;;;;;10.07;8.37;;;9.50;63.00;;;;;;5010496;28;20975;-40
2020/12/18 02:08:05;;;;;;;24.93;8.20;;;9.40;63.60;;;;;;5010177;28;20565;-40
2020/12/18 02:10:31;;;;;;;76.07;11.10;;;9.50;63.70;;;;;;5010987;28;20210;-40
2020/12/18 02:12:57;;;;;;;14.00;7.73;;;9.30;63.20;;;;;;5009489;28;21007;-40
2020/12/18 02:15:23;;;;;;;10.17;7.43;;;9.10;64.90;;;;;;5009331;28;20676;-40
2020/12/18 02:17:50;;;;;;;7.33;6.63;;;9.30;65.10;;;;;;5010636;28;20273;-40
2020/12/18 02:20:17;;;;;;;12.80;7.13;;;9.40;64.30;;;;;;5008458;28;20440;-40
2020/12/18 02:22:42;;;;;;;8.70;7.57;;;9.20;64.00;;;;;;5009255;28;20972;-40
2020/12/18 02:25:10;;;;;;;9.93;7.63;;;9.20;65.00;;;;;;5008399;28;20447;-40
2020/12/18 02:27:37;;;;;;;13.53;8.40;;;9.30;64.60;;;;;;5011734;28;20671;-40
2020/12/18 02:30:08;;;;;;;80.73;13.23;;;9.40;64.30;;;;;;5010870;28;20450;-40
2020/12/18 02:32:34;;;;;;;36.60;7.37;;;9.40;63.50;;;;;;5007903;28;20441;-41
2020/12/18 02:35:00;;;;;;;21.90;7.80;;;9.10;63.40;;;;;;5005863;28;20452;-40
2020/12/18 02:37:25;;;;;;;13.97;7.33;;;8.90;64.40;;;;;;5008978;28;20998;-40
2020/12/18 02:39:56;;;;;;;56.33;10.70;;;8.80;66.00;;;;;;5010757;28;20672;-40
2020/12/18 02:42:22;;;;;;;14.53;7.20;;;8.50;66.10;;;;;;5011989;28;20206;-40
2020/12/18 02:44:48;;;;;;;82.33;10.67;;;8.30;67.00;;;;;;5014333;28;20445;-40
2020/12/18 02:47:13;;;;;;;15.73;7.00;;;8.20;67.50;;;;;;5005295;28;20198;-40
2020/12/18 02:49:39;;;;;;;9.10;6.30;;;7.90;68.20;;;;;;5008633;28;20233;-40
2020/12/18 02:52:05;;;;;;;9.03;7.30;;;7.90;68.80;;;;;;5004621;28;20198;-40
2020/12/18 02:54:30;;;;;;;7.23;6.53;;;8.00;68.90;;;;;;5011545;28;20299;-40
2020/12/18 02:56:56;;;;;;;7.83;6.30;;;8.10;68.40;;;;;;5006243;28;20273;-41
2020/12/18 02:59:21;;;;;;;11.13;6.70;;;8.20;67.40;;;;;;5009062;28;20200;-40
2020/12/18 03:01:47;;;;;;;8.50;6.43;;;8.30;67.20;;;;;;5009838;28;20252;-40
2020/12/18 03:04:12;;;;;;;7.20;6.30;;;8.30;67.30;;;;;;5001917;28;20190;-40
2020/12/18 03:06:38;;;;;;;7.60;6.40;;;8.50;67.60;;;;;;5006094;28;20221;-40
2020/12/18 03:09:04;;;;;;;8.43;6.13;;;8.80;66.60;;;;;;5011869;28;20597;-40
2020/12/18 03:11:30;;;;;;;7.40;6.70;;;9.00;65.50;;;;;;4994349;28;20301;-40
2020/12/18 03:13:55;;;;;;;7.30;6.70;;;9.20;64.50;;;;;;5005159;28;20488;-40
2020/12/18 03:16:21;;;;;;;9.20;7.17;;;9.30;63.60;;;;;;5008492;28;20279;-40
2020/12/18 03:18:46;;;;;;;15.33;7.80;;;9.40;63.00;;;;;;5008220;28;20198;-40
2020/12/18 03:21:12;;;;;;;14.67;7.30;;;9.40;62.70;;;;;;5008850;28;20280;-40
2020/12/18 03:23:37;;;;;;;14.47;7.00;;;9.40;62.50;;;;;;5001269;28;20220;-40
2020/12/18 03:26:03;;;;;;;24.90;6.77;;;9.30;62.50;;;;;;5008114;28;20237;-40
2020/12/18 03:28:29;;;;;;;11.53;6.30;;;9.00;63.30;;;;;;5009421;28;20914;-40
2020/12/18 03:30:56;;;;;;;10.43;5.90;;;8.70;64.00;;;;;;5008153;28;20640;-40
2020/12/18 03:33:22;;;;;;;11.30;6.30;;;8.60;64.90;;;;;;4997257;28;20225;-40
2020/12/18 03:35:47;;;;;;;8.13;6.23;;;8.40;65.60;;;;;;5008725;28;20452;-40
2020/12/18 03:38:13;;;;;;;27.27;6.87;;;8.30;65.90;;;;;;5007130;28;20436;-40
2020/12/18 03:40:39;;;;;;;30.03;8.50;;;8.40;66.30;;;;;;5008913;28;20616;-40
2020/12/18 03:43:04;;;;;;;17.30;7.03;;;8.50;65.90;;;;;;5008294;28;20256;-40
2020/12/18 03:45:30;;;;;;;6.97;6.27;;;8.60;65.40;;;;;;5008906;28;20213;-40
2020/12/18 03:47:55;;;;;;;6.83;6.17;;;8.80;65.00;;;;;;5009572;28;20233;-40
2020/12/18 03:50:21;;;;;;;7.47;6.20;;;9.00;64.50;;;;;;5008531;28;20200;-40
2020/12/18 03:52:47;;;;;;;7.10;5.80;;;9.10;64.10;;;;;;5004620;28;20221;-40
2020/12/18 03:55:12;;;;;;;6.73;6.13;;;9.10;64.00;;;;;;5008235;28;20198;-39
2020/12/18 03:57:38;;;;;;;7.77;6.63;;;9.10;64.30;;;;;;5010019;28;20194;-40
2020/12/18 04:00:07;;;;;;;7.13;6.43;;;9.00;64.20;;;;;;5008616;28;20737;-40
2020/12/18 04:02:33;;;;;;;6.80;6.10;;;8.70;65.10;;;;;;5006106;28;20240;-40
2020/12/18 04:04:59;;;;;;;6.90;6.20;;;8.70;66.00;;;;;;5008668;28;20429;-40
2020/12/18 04:07:24;;;;;;;6.53;5.93;;;8.70;65.90;;;;;;5002808;28;20192;-40
2020/12/18 04:09:50;;;;;;;8.23;6.40;;;8.70;66.30;;;;;;5007043;28;20247;-40
2020/12/18 04:12:15;;;;;;;6.63;6.00;;;8.90;66.20;;;;;;5008017;28;20205;-40
2020/12/18 04:14:41;;;;;;;6.87;6.17;;;9.10;65.70;;;;;;5009527;28;20721;-40
2020/12/18 04:17:07;;;;;;;7.63;5.93;;;9.30;65.10;;;;;;5007623;28;20194;-40
2020/12/18 04:19:33;;;;;;;7.17;6.10;;;9.50;64.80;;;;;;5007925;28;20704;-40
2020/12/18 04:21:59;;;;;;;7.17;6.00;;;9.40;64.50;;;;;;5008529;28;20282;-40
2020/12/18 04:24:24;;;;;;;6.20;5.60;;;9.50;64.10;;;;;;5007970;28;21315;-40
2020/12/18 04:26:50;;;;;;;7.17;6.43;;;9.50;63.80;;;;;;5004626;28;20217;-40
2020/12/18 04:29:16;;;;;;;6.57;5.90;;;9.40;63.40;;;;;;4999459;28;20710;-40
2020/12/18 04:31:42;;;;;;;8.37;6.50;;;9.30;64.10;;;;;;5003268;28;20233;-40
2020/12/18 04:34:08;;;;;;;7.00;5.70;;;9.00;64.60;;;;;;5010023;28;20516;-40
2020/12/18 04:36:34;;;;;;;8.57;7.23;;;8.70;65.90;;;;;;5014876;28;20204;-40
2020/12/18 04:39:00;;;;;;;7.40;6.63;;;8.30;67.30;;;;;;5014261;28;20531;-40
2020/12/18 04:41:26;;;;;;;7.40;6.70;;;8.40;68.60;;;;;;5014704;28;20571;-40
2020/12/18 04:43:55;;;;;;;7.57;6.80;;;8.30;68.20;;;;;;5011638;28;20193;-39
2020/12/18 04:46:22;;;;;;;8.37;7.57;;;7.90;69.80;;;;;;5007348;28;20441;-40
2020/12/18 04:48:49;;;;;;;7.77;6.97;;;8.00;70.40;;;;;;5008051;28;20854;-40
2020/12/18 04:51:24;;;;;;;7.63;6.93;;;8.30;70.00;;;;;;5010099;28;20448;-40
2020/12/18 04:53:52;;;;;;;8.60;7.40;;;8.50;69.10;;;;;;5011306;28;20495;-40
2020/12/18 04:56:21;;;;;;;8.00;7.20;;;8.70;68.80;;;;;;5007564;28;20445;-40
2020/12/18 04:58:49;;;;;;;7.23;6.60;;;8.80;68.20;;;;;;5010175;28;20449;-41
2020/12/18 05:01:19;;;;;;;8.43;7.40;;;8.90;67.70;;;;;;5002756;28;20582;-42
2020/12/18 05:03:45;;;;;;;9.13;7.40;;;8.90;67.80;;;;;;5005395;28;20432;-42
2020/12/18 05:06:11;;;;;;;9.10;7.23;;;8.80;68.40;;;;;;5010588;28;20460;-42
2020/12/18 05:08:37;;;;;;;9.50;7.90;;;8.90;68.50;;;;;;5013703;28;20433;-42
2020/12/18 05:11:24;;;;;;;7.83;7.03;;;8.80;68.40;;;;;;5005793;28;20440;-42
2020/12/18 05:13:52;;;;;;;9.40;7.50;;;9.10;68.20;;;;;;5006488;28;20970;-40
2020/12/18 05:16:21;;;;;;;7.70;6.90;;;9.30;67.30;;;;;;5002741;28;20453;-40
2020/12/18 05:18:48;;;;;;;8.03;7.33;;;9.50;66.40;;;;;;5011737;28;20449;-40
2020/12/18 05:21:15;;;;;;;7.90;7.10;;;9.70;65.70;;;;;;5009529;28;20490;-40
2020/12/18 05:23:42;;;;;;;12.53;7.93;;;9.70;64.90;;;;;;5005854;28;20432;-42
2020/12/18 05:26:09;;;;;;;8.73;7.63;;;9.70;64.80;;;;;;5009538;28;20475;-42
2020/12/18 05:28:42;;;;;;;8.70;7.90;;;9.60;64.90;;;;;;5011445;28;20452;-42
2020/12/18 05:31:19;;;;;;;8.83;8.03;;;9.70;64.70;;;;;;5009706;28;20807;-40
2020/12/18 05:33:47;;;;;;;8.13;7.37;;;9.80;64.10;;;;;;5008802;28;20488;-40
2020/12/18 05:36:14;;;;;;;10.00;8.50;;;9.90;63.60;;;;;;5011293;28;20452;-42
2020/12/18 05:38:41;;;;;;;8.73;7.37;;;9.80;63.20;;;;;;5009589;28;20444;-42
2020/12/18 05:41:08;;;;;;;8.83;7.97;;;9.50;64.10;;;;;;5010222;28;20444;-40
2020/12/18 05:43:41;;;;;;;8.03;7.23;;;9.60;64.40;;;;;;5008079;28;20437;-41
2020/12/18 05:46:32;;;;;;;8.63;7.60;;;9.70;63.70;;;;;;5003777;28;20453;-40
2020/12/18 05:49:01;;;;;;;8.80;7.33;;;9.60;62.60;;;;;;5002238;28;20515;-40
2020/12/18 05:51:28;;;;;;;8.37;7.47;;;9.40;63.20;;;;;;5006775;28;20469;-42
2020/12/18 05:54:29;;;;;;;8.90;7.57;;;9.30;63.40;;;;;;5006921;28;20507;-42
2020/12/18 05:56:55;;;;;;;8.37;7.47;;;9.10;64.10;;;;;;4998817;28;20457;-42
2020/12/18 05:59:21;;;;;;;8.80;7.30;;;9.30;63.90;;;;;;5009397;28;20480;-40
2020/12/18 06:01:47;;;;;;;7.87;6.73;;;9.40;63.10;;;;;;5008286;28;20539;-40
2020/12/18 06:04:15;;;;;;;9.40;7.47;;;9.40;62.90;;;;;;5010084;28;20201;-40
2020/12/18 06:06:52;;;;;;;8.00;7.20;;;9.40;62.80;;;;;;5010137;28;20510;-40
2020/12/18 06:09:22;;;;;;;10.90;7.17;;;9.50;62.50;;;;;;5007486;28;20483;-40
2020/12/18 06:11:48;;;;;;;7.67;6.87;;;9.60;62.30;;;;;;5010931;28;20440;-40
2020/12/18 06:14:16;;;;;;;7.37;6.70;;;9.50;62.40;;;;;;5011752;28;20472;-40
2020/12/18 06:16:47;;;;;;;14.23;8.20;;;9.70;64.50;;;;;;5001466;28;20437;-40
2020/12/18 06:19:15;;;;;;;8.83;7.93;;;9.90;64.00;;;;;;5010153;28;20448;-40
2020/12/18 06:21:50;;;;;;;8.40;7.57;;;10.20;61.80;;;;;;5001209;28;20445;-42
2020/12/18 06:24:16;;;;;;;36.30;32.70;;;10.40;60.80;;;;;;4998814;28;20567;-43
2020/12/18 06:26:44;;;;;;;23.90;21.47;;;10.70;60.70;;;;;;5008050;28;21074;-40
2020/12/18 06:29:10;;;;;;;16.17;14.60;;;11.00;60.80;;;;;;5009585;28;20449;-41
2020/12/18 06:31:35;;;;;;;11.77;10.67;;;11.20;60.10;;;;;;5004257;28;20449;-40
2020/12/18 06:34:03;;;;;;;9.97;8.87;;;11.40;59.70;;;;;;5007902;28;20230;-40
2020/12/18 06:36:44;;;;;;;10.27;8.37;;;11.60;59.10;;;;;;5007736;28;20190;-40
2020/12/18 06:39:29;;;;;;;8.83;7.83;;;11.70;58.20;;;;;;5007247;28;20471;-40
2020/12/18 06:42:23;;;;;;;10.37;8.17;;;11.70;57.40;;;;;;5008519;28;20848;-40
2020/12/18 06:44:49;;;;;;;9.67;8.67;;;11.60;56.60;;;;;;5008597;28;20437;-40
2020/12/18 06:47:35;;;;;;;8.80;7.50;;;11.60;56.50;;;;;;5006615;28;20761;-41
2020/12/18 06:50:01;;;;;;;8.20;6.83;;;11.50;56.20;;;;;;5009326;28;20213;-40
2020/12/18 06:52:46;;;;;;;7.97;7.17;;;11.30;55.90;;;;;;5009826;28;20483;-40
2020/12/18 06:55:12;;;;;;;8.37;7.53;;;11.20;56.10;;;;;;5006195;28;20576;-40
2020/12/18 06:57:38;;;;;;;10.10;8.50;;;11.00;56.70;;;;;;5009002;28;20516;-40
2020/12/18 07:00:25;;;;;;;8.73;7.43;;;10.70;57.80;;;;;;5009912;28;20193;-41
2020/12/18 07:02:51;;;;;;;7.73;7.03;;;10.60;58.40;;;;;;5011351;28;21036;-40
2020/12/18 07:05:37;;;;;;;9.40;8.50;;;10.70;58.30;;;;;;5014909;28;20547;-40
2020/12/18 07:08:07;;;;;;;8.90;8.03;;;10.70;57.90;;;;;;5004291;28;20205;-40
2020/12/18 07:10:39;;;;;;;9.10;8.20;;;10.60;58.10;;;;;;5011247;28;20471;-41
2020/12/18 07:13:07;;;;;;;14.30;8.93;;;10.40;57.80;;;;;;5011121;28;20485;-40
2020/12/18 07:15:45;;;;;;;8.50;7.67;;;10.30;59.10;;;;;;5010911;28;20433;-40
2020/12/18 07:18:23;;;;;;;11.80;10.00;;;10.40;58.90;;;;;;5010630;28;20547;-40
2020/12/18 07:20:54;;;;;;;13.80;10.80;;;10.60;58.70;;;;;;5011421;28;20437;-40
2020/12/18 07:23:21;;;;;;;15.53;10.47;;;10.70;58.50;;;;;;5009249;28;20445;-40
2020/12/18 07:25:48;;;;;;;11.33;9.87;;;10.80;58.00;;;;;;5011022;28;20524;-40
2020/12/18 07:28:14;;;;;;;11.30;8.83;;;11.00;57.70;;;;;;5010779;28;20930;-40
2020/12/18 07:30:42;;;;;;;9.10;8.10;;;11.10;57.20;;;;;;5010965;28;20540;-40
2020/12/18 07:33:10;;;;;;;9.37;8.37;;;11.10;56.70;;;;;;5010481;28;20527;-41
2020/12/18 07:35:45;;;;;;;9.10;8.20;;;11.20;56.60;;;;;;5010878;28;20499;-41
2020/12/18 07:38:18;;;;;;;10.27;8.93;;;11.10;56.30;;;;;;5010651;28;20444;-40
2020/12/18 07:40:45;;;;;;;9.57;8.00;;;11.00;56.50;;;;;;5010728;28;20834;-41
2020/12/18 07:43:13;;;;;;;9.23;8.27;;;11.00;57.10;;;;;;5010807;28;20475;-40
2020/12/18 07:45:41;;;;;;;9.17;8.30;;;11.00;57.40;;;;;;5010940;28;20516;-40
2020/12/18 07:48:11;;;;;;;9.37;8.47;;;11.10;57.20;;;;;;5009383;28;20496;-40
2020/12/18 07:50:38;;;;;;;9.10;8.20;;;11.00;56.70;;;;;;5008794;28;20486;-41
2020/12/18 07:53:08;;;;;;;8.37;7.67;;;11.00;57.20;;;;;;5010380;28;20479;-40
2020/12/18 07:55:34;;;;;;;8.67;7.77;;;11.10;56.80;;;;;;5011067;28;20959;-40
2020/12/18 07:58:00;;;;;;;9.27;8.37;;;11.10;56.90;;;;;;5009739;28;20470;-40
2020/12/18 08:00:26;;;;;;;10.40;8.90;;;11.20;57.40;;;;;;5015230;28;20223;-41
2020/12/18 08:02:52;;;;;;;9.57;8.47;;;11.20;56.30;;;;;;5010377;28;20697;-40
2020/12/18 08:05:24;;;;;;;9.90;8.80;;;11.20;56.80;;;;;;5010463;28;20198;-40
2020/12/18 08:07:50;;;;;;;10.87;9.77;;;11.30;56.80;;;;;;5008182;28;20437;-40
2020/12/18 08:10:17;;;;;;;11.07;9.60;;;11.40;56.60;;;;;;5008381;28;20444;-41
2020/12/18 08:12:47;;;;;;;11.10;9.83;;;11.20;56.20;;;;;;5008053;28;20569;-42
2020/12/18 08:15:14;;;;;;;11.93;10.60;;;11.10;56.90;;;;;;5009355;28;20440;-41
2020/12/18 08:17:41;;;;;;;11.47;10.07;;;11.20;57.10;;;;;;5007040;28;20441;-41
2020/12/18 08:20:11;;;;;;;10.17;9.17;;;11.40;56.80;;;;;;5008830;28;20925;-41
2020/12/18 08:22:44;;;;;;;10.80;9.47;;;11.40;56.60;;;;;;5008615;28;20444;-41
2020/12/18 08:25:11;;;;;;;9.77;8.77;;;11.30;56.70;;;;;;5009763;28;20443;-41
2020/12/18 08:27:49;;;;;;;11.27;8.90;;;11.30;57.00;;;;;;5008732;28;20425;-41
2020/12/18 08:30:19;;;;;;;9.50;8.40;;;11.30;56.90;;;;;;5005593;28;21195;-41
2020/12/18 08:32:52;;;;;;;9.97;9.07;;;11.10;57.30;;;;;;5008658;28;20917;-41
2020/12/18 08:35:20;;;;;;;9.00;8.20;;;11.20;57.60;;;;;;5010022;28;20758;-41
2020/12/18 08:37:46;;;;;;;9.20;7.70;;;11.30;57.40;;;;;;5009503;28;20444;-41
2020/12/18 08:40:43;;;;;;;11.00;9.07;;;11.40;57.30;;;;;;5009315;28;20433;-41
2020/12/18 08:43:12;;;;;;;11.97;10.67;;;11.30;57.40;;;;;;5014935;28;20478;-41
2020/12/18 08:45:44;;;;;;;10.57;8.83;;;11.40;57.30;;;;;;5008601;28;20436;-41
2020/12/18 08:48:10;;;;;;;9.83;8.80;;;11.50;57.40;;;;;;5007658;28;20464;-41
2020/12/18 08:50:37;;;;;;;10.70;9.10;;;11.50;57.10;;;;;;5008624;28;20436;-41
2020/12/18 08:53:10;;;;;;;11.20;10.10;;;11.50;57.10;;;;;;5009235;28;20502;-41
2020/12/18 08:55:36;;;;;;;11.20;9.60;;;11.50;57.30;;;;;;5009767;28;20422;-41
2020/12/18 08:58:06;;;;;;;11.87;9.70;;;11.50;57.00;;;;;;5008800;28;20445;-41
2020/12/18 09:00:32;;;;;;;11.03;9.13;;;11.60;57.20;;;;;;5009011;28;20486;-41
2020/12/18 09:02:58;;;;;;;10.10;8.93;;;11.40;57.40;;;;;;5008585;28;20801;-41
2020/12/18 09:05:26;;;;;;;9.70;8.80;;;11.40;58.00;;;;;;5009504;28;20665;-41
2020/12/18 09:08:03;;;;;;;9.63;8.67;;;11.50;57.80;;;;;;5009200;28;20464;-41
2020/12/18 09:10:40;;;;;;;10.60;8.53;;;11.50;57.70;;;;;;5008209;28;20471;-42
2020/12/18 09:13:09;;;;;;;12.90;8.70;;;11.50;57.90;;;;;;5000968;28;20480;-41
2020/12/18 09:15:35;;;;;;;17.23;8.37;;;11.60;57.80;;;;;;4999699;28;20535;-41
2020/12/18 09:18:00;;;;;;;10.10;9.10;;;11.60;57.90;;;;;;5006058;28;20540;-41
2020/12/18 09:20:28;;;;;;;11.18;8.95;;;11.70;57.90;;;;;;5006959;28;20461;-42
2020/12/18 09:22:55;;;;;;;10.17;9.17;;;11.80;57.80;;;;;;5010709;28;20273;-41
2020/12/18 09:25:21;;;;;;;9.50;8.50;;;11.80;57.80;;;;;;5010517;28;20433;-41
2020/12/18 09:27:57;;;;;;;9.90;8.90;;;11.90;57.90;;;;;;5009586;28;20429;-42
2020/12/18 09:30:28;;;;;;;10.30;9.30;;;12.00;57.70;;;;;;5013001;28;20736;-41
2020/12/18 09:33:27;;;;;;;9.80;8.57;;;11.80;57.80;;;;;;5010138;28;20525;-41
2020/12/18 09:35:55;;;;;;;10.43;9.00;;;11.80;58.70;;;;;;4981869;28;20457;-41
2020/12/18 09:38:26;;;;;;;11.00;9.60;;;11.90;58.30;;;;;;5005668;28;20807;-41
2020/12/18 09:40:52;;;;;;;11.07;8.63;;;11.90;58.10;;;;;;5012514;28;20487;-41
2020/12/18 09:43:19;;;;;;;13.20;10.50;;;12.10;58.10;;;;;;5008837;28;20447;-41
2020/12/18 09:45:45;;;;;;;11.43;10.00;;;12.20;57.60;;;;;;5013012;28;20494;-41
2020/12/18 09:48:11;;;;;;;10.83;9.27;;;12.30;57.40;;;;;;5011986;28;20547;-41
2020/12/18 09:50:38;;;;;;;11.07;9.63;;;12.40;57.40;;;;;;5011528;28;20449;-41
2020/12/18 09:53:04;;;;;;;10.03;8.97;;;12.40;57.50;;;;;;5002664;28;20844;-41
2020/12/18 09:55:30;;;;;;;11.70;10.50;;;12.40;57.30;;;;;;5007687;28;20447;-41
2020/12/18 09:57:56;;;;;;;10.30;9.37;;;12.50;57.90;;;;;;5010628;28;20527;-41
2020/12/18 10:00:21;;;;;;;13.63;9.67;;;12.90;57.10;;;;;;5011095;28;20520;-41
2020/12/18 10:02:47;;;;;;;10.00;9.10;;;12.90;57.70;;;;;;5009904;28;20190;-41
2020/12/18 10:05:13;;;;;;;10.50;9.50;;;13.40;57.50;;;;;;5014829;28;20208;-41
2020/12/18 10:07:38;;;;;;;9.73;8.70;;;13.70;56.80;;;;;;5009547;28;20203;-41
2020/12/18 10:10:04;;;;;;;14.60;9.27;;;14.00;56.40;;;;;;5004017;28;20240;-41
2020/12/18 10:12:30;;;;;;;10.70;8.97;;;14.20;55.40;;;;;;5010259;28;20205;-41
2020/12/18 10:14:55;;;;;;;8.87;8.10;;;14.30;55.90;;;;;;5008524;28;20279;-41
2020/12/18 10:17:21;;;;;;;10.27;8.90;;;14.40;55.70;;;;;;5010615;28;20194;-42
2020/12/18 10:19:46;;;;;;;9.80;8.90;;;14.50;55.10;;;;;;5008890;28;20228;-41
2020/12/18 10:22:12;;;;;;;9.50;8.57;;;14.80;54.60;;;;;;5011327;28;20205;-42
2020/12/18 10:24:38;;;;;;;9.63;8.73;;;15.00;53.90;;;;;;5010505;28;20244;-42
2020/12/18 10:27:03;;;;;;;9.13;8.23;;;15.10;53.50;;;;;;5009599;28;20186;-41
2020/12/18 10:29:29;;;;;;;10.93;8.97;;;15.40;53.40;;;;;;5003389;28;20229;-42
2020/12/18 10:31:56;;;;;;;12.17;9.70;;;15.50;53.00;;;;;;5005682;28;20194;-42
2020/12/18 10:34:23;;;;;;;9.63;8.63;;;15.70;52.80;;;;;;5011500;28;20233;-42
2020/12/18 10:36:50;;;;;;;8.73;7.93;;;16.00;52.10;;;;;;5010576;28;20540;-42
2020/12/18 10:39:16;;;;;;;9.80;8.90;;;16.10;52.10;;;;;;5009621;28;20944;-42
2020/12/18 10:41:41;;;;;;;9.80;8.80;;;16.50;51.00;;;;;;5009160;28;20464;-42
2020/12/18 10:44:07;;;;;;;9.87;8.97;;;16.40;50.40;;;;;;5011782;28;20685;-42
2020/12/18 10:46:34;;;;;;;10.50;9.50;;;16.50;50.80;;;;;;5010713;28;20198;-42
2020/12/18 10:48:59;;;;;;;9.93;8.93;;;16.70;49.90;;;;;;5009908;28;20244;-42
2020/12/18 10:51:25;;;;;;;13.03;8.73;;;16.90;50.40;;;;;;5010526;28;20437;-43
2020/12/18 10:53:50;;;;;;;10.23;9.23;;;17.20;49.60;;;;;;5010617;28;20225;-43
2020/12/18 10:56:16;;;;;;;12.00;10.43;;;17.50;48.50;;;;;;5007595;28;20610;-42
2020/12/18 10:58:42;;;;;;;10.80;8.73;;;17.70;47.30;;;;;;5010307;28;20202;-43
2020/12/18 11:01:07;;;;;;;9.90;8.90;;;18.00;47.40;;;;;;5010849;28;20206;-42
2020/12/18 11:03:33;;;;;;;9.70;8.80;;;18.10;47.50;;;;;;5010981;28;20728;-42
2020/12/18 11:06:05;;;;;;;11.27;10.17;;;18.30;47.30;;;;;;5006421;28;20210;-42
2020/12/18 11:08:31;;;;;;;9.83;8.83;;;18.60;46.60;;;;;;5006769;28;20198;-43
2020/12/18 11:10:56;;;;;;;10.67;9.57;;;19.00;45.60;;;;;;5007948;28;20449;-43
2020/12/18 11:13:22;;;;;;;11.07;9.40;;;18.90;45.30;;;;;;5009434;28;20229;-42
2020/12/18 11:15:48;;;;;;;11.30;9.20;;;18.90;45.80;;;;;;5011335;28;20673;-42
2020/12/18 11:18:14;;;;;;;10.27;9.17;;;18.90;45.90;;;;;;5010359;28;20189;-42
2020/12/18 11:20:39;;;;;;;11.10;9.80;;;18.80;45.90;;;;;;5011229;28;20432;-42
2020/12/18 11:23:05;;;;;;;9.90;8.90;;;18.40;46.60;;;;;;5009805;28;20202;-42
2020/12/18 11:25:30;;;;;;;10.93;9.83;;;18.30;47.10;;;;;;5013719;28;20213;-43
2020/12/18 11:27:56;;;;;;;11.43;9.10;;;18.30;47.60;;;;;;5004407;28;20202;-42
2020/12/18 11:30:22;;;;;;;11.53;10.33;;;18.40;47.40;;;;;;5000243;28;20195;-42
2020/12/18 11:32:47;;;;;;;11.20;10.10;;;18.50;47.10;;;;;;5004086;28;20448;-42
2020/12/18 11:35:13;;;;;;;10.07;8.77;;;18.40;47.00;;;;;;5008290;28;20197;-42
2020/12/18 11:37:39;;;;;;;11.17;10.07;;;18.40;47.20;;;;;;5005512;28;20275;-42
2020/12/18 11:40:05;;;;;;;10.63;9.53;;;18.50;47.10;;;;;;5010090;28;20198;-42
2020/12/18 11:42:31;;;;;;;12.27;9.67;;;18.50;47.20;;;;;;5008630;28;20190;-42
2020/12/18 11:44:56;;;;;;;12.03;9.50;;;18.40;47.20;;;;;;5009409;28;20448;-42
2020/12/18 11:47:23;;;;;;;11.43;10.00;;;18.30;46.90;;;;;;5009699;28;20190;-42
2020/12/18 11:49:49;;;;;;;12.83;9.30;;;18.40;47.10;;;;;;5010030;28;20995;-42
2020/12/18 11:52:15;;;;;;;12.57;9.40;;;18.50;47.10;;;;;;5010449;28;20448;-42
2020/12/18 11:54:40;;;;;;;11.07;9.00;;;18.50;47.30;;;;;;5011914;28;20230;-42
2020/12/18 11:57:06;;;;;;;13.70;9.10;;;18.40;47.20;;;;;;5013056;28;20193;-42
2020/12/18 11:59:31;;;;;;;10.67;9.57;;;18.50;47.30;;;;;;5012851;28;20200;-42
2020/12/18 12:01:57;;;;;;;14.10;10.33;;;18.60;47.40;;;;;;5008115;28;20194;-42
2020/12/18 12:04:23;;;;;;;11.40;9.03;;;18.70;47.30;;;;;;4996185;28;20205;-42
2020/12/18 12:06:48;;;;;;;9.90;8.80;;;18.80;47.10;;;;;;5008749;28;20198;-42
2020/12/18 12:09:14;;;;;;;12.47;8.90;;;18.90;46.80;;;;;;5009558;28;20198;-42
2020/12/18 12:11:41;;;;;;;11.20;8.70;;;18.90;46.50;;;;;;5010134;28;21300;-42
2020/12/18 12:14:08;;;;;;;9.27;8.37;;;18.80;46.30;;;;;;5009340;28;20685;-42
2020/12/18 12:16:37;;;;;;;11.90;8.93;;;18.70;46.70;;;;;;5009588;28;20473;-42
2020/12/18 12:19:04;;;;;;;12.40;9.50;;;18.80;46.90;;;;;;5008742;28;20437;-42
2020/12/18 12:21:33;;;;;;;10.93;9.70;;;19.00;46.60;;;;;;5009783;28;20519;-42
2020/12/18 12:23:58;;;;;;;8.80;8.00;;;19.00;46.50;;;;;;5010754;28;20453;-42
2020/12/18 12:26:25;;;;;;;10.00;9.00;;;19.00;46.50;;;;;;5009607;28;21272;-41
2020/12/18 12:28:51;;;;;;;10.83;9.40;;;18.90;46.70;;;;;;5009696;28;20696;-42
2020/12/18 12:31:16;;;;;;;11.83;9.50;;;19.00;46.90;;;;;;5005236;28;20521;-42
2020/12/18 12:33:42;;;;;;;14.23;8.57;;;19.20;46.30;;;;;;5005343;28;20248;-42
2020/12/18 12:36:08;;;;;;;10.70;8.33;;;19.10;46.40;;;;;;5004531;28;20284;-42
2020/12/18 12:38:33;;;;;;;9.73;8.73;;;18.90;46.60;;;;;;5012180;28;20232;-42
2020/12/18 12:40:59;;;;;;;9.37;8.10;;;18.80;46.80;;;;;;5005796;28;20269;-42
2020/12/18 12:43:24;;;;;;;12.57;8.80;;;18.90;46.70;;;;;;5008620;28;20319;-42
2020/12/18 12:45:50;;;;;;;9.10;7.60;;;19.00;47.00;;;;;;5009132;28;20202;-42
2020/12/18 12:48:16;;;;;;;9.07;8.17;;;19.20;46.80;;;;;;5010515;28;20599;-42